createdAt,value
2022-12-11T00:01:33.844Z,87.68945
2022-12-11T00:03:33.820Z,88.25391
2022-12-11T00:05:33.759Z,88.57227
2022-12-11T00:07:33.830Z,87.01953
2022-12-11T00:10:51.250Z,87.36328
2022-12-11T00:12:51.319Z,86.94043
2022-12-11T00:14:51.317Z,87.5
2022-12-11T00:16:51.564Z,88.36816
2022-12-11T00:18:51.356Z,88.22852
2022-12-11T00:20:51.439Z,88.38672
2022-12-11T00:22:51.254Z,89.1748
2022-12-11T00:26:26.050Z,88.59766
2022-12-11T00:28:25.698Z,88.73242
2022-12-11T00:30:25.668Z,87.64355
2022-12-11T00:32:28.798Z,87.85156
2022-12-11T00:34:25.706Z,87.31641
2022-12-11T00:36:25.747Z,87.39551
2022-12-11T00:38:25.713Z,87.37012
2022-12-11T00:41:04.003Z,87.64453
2022-12-11T00:43:03.874Z,87.875
2022-12-11T00:45:04.019Z,87.4209
2022-12-11T00:47:03.968Z,87.29004
2022-12-11T00:49:03.878Z,86.9668
2022-12-11T00:51:03.999Z,88.54883
2022-12-11T00:53:03.898Z,87.91992
2022-12-11T00:56:47.334Z,87.86133
2022-12-11T01:50:33.988Z,99.15234
2022-12-11T01:52:33.901Z,96.53223
2022-12-11T01:54:33.871Z,92.65723
2022-12-11T01:56:33.923Z,90.9541
2022-12-11T01:58:33.857Z,89.23633
2022-12-11T02:00:33.854Z,88.24316
2022-12-11T02:02:34.073Z,86.29883
2022-12-11T02:04:33.835Z,86.35742
2022-12-11T02:06:32.706Z,86.11426
2022-12-11T02:08:32.679Z,85.61328
2022-12-11T02:10:32.656Z,85.05762
2022-12-11T02:12:32.846Z,85.02148
2022-12-11T02:14:32.677Z,83.53516
2022-12-11T02:16:32.780Z,83.71387
2022-12-11T02:18:32.648Z,84.01172
2022-12-11T02:21:14.502Z,83.12695
2022-12-11T02:23:14.904Z,83.33984
2022-12-11T02:25:14.514Z,82.59863
2022-12-11T02:27:14.633Z,82.7041
2022-12-11T02:29:14.504Z,82.87891
2022-12-11T02:31:14.611Z,82.70898
2022-12-11T02:33:14.496Z,83.39844
2022-12-11T02:36:26.744Z,84.49023
2022-12-11T02:38:26.862Z,86.38184
2022-12-11T02:40:26.777Z,87.23242
2022-12-11T02:42:26.761Z,86.19531
2022-12-11T02:44:26.798Z,86.85254
2022-12-11T02:46:26.771Z,87.62695
2022-12-11T02:48:26.914Z,87.61816
2022-12-11T02:51:50.444Z,87.58105
2022-12-11T02:53:50.489Z,88.91211
2022-12-11T02:55:50.445Z,88.00391
2022-12-11T02:57:50.658Z,87.49609
2022-12-11T02:59:50.596Z,86.63574
2022-12-11T03:01:50.485Z,86.86328
2022-12-11T03:03:50.394Z,86.33105
2022-12-11T03:06:31.919Z,86.57031
2022-12-11T03:08:31.984Z,86.15332
2022-12-11T03:10:31.970Z,85.86035
2022-12-11T03:12:32.046Z,86.11719
2022-12-11T03:14:31.921Z,86.01172
2022-12-11T03:16:32.067Z,85.96875
2022-12-11T03:18:31.903Z,86.42285
2022-12-11T03:22:03.232Z,86.4082
2022-12-11T03:24:03.178Z,85.98047
2022-12-11T03:26:03.120Z,87.06543
2022-12-11T03:28:03.228Z,87.2168
2022-12-11T03:30:03.163Z,87.00684
2022-12-11T03:32:03.392Z,87.51172
2022-12-11T03:34:03.091Z,86.93555
2022-12-11T03:37:08.478Z,87.62305
2022-12-11T03:39:08.486Z,87.37012
2022-12-11T03:41:08.553Z,87.02637
2022-12-11T03:43:08.530Z,87.19824
2022-12-11T03:45:08.985Z,86.71484
2022-12-11T03:47:08.535Z,86.15723
2022-12-11T03:49:08.511Z,86.31055
2022-12-11T03:51:46.161Z,86.16211
2022-12-11T03:53:46.191Z,85.78418
2022-12-11T03:55:46.204Z,85.94922
2022-12-11T03:57:46.476Z,86.23145
2022-12-11T03:59:46.197Z,86.45605
2022-12-11T04:01:46.297Z,86.70508
2022-12-11T04:03:46.209Z,86.79492
2022-12-11T04:05:46.152Z,86.91797
2022-12-11T04:07:00.758Z,86.90723
2022-12-11T04:09:00.596Z,86.55273
2022-12-11T04:11:00.725Z,86.60059
2022-12-11T04:13:00.699Z,86.29395
2022-12-11T04:15:00.549Z,86.48438
2022-12-11T04:17:00.726Z,86.54688
2022-12-11T04:19:00.541Z,86.60938
2022-12-11T04:21:00.588Z,85.92578
2022-12-11T04:22:39.279Z,85.9834
2022-12-11T04:24:39.016Z,85.99414
2022-12-11T04:26:39.077Z,85.32227
2022-12-11T04:28:39.153Z,85.99512
2022-12-11T04:30:39.155Z,85.37305
2022-12-11T04:32:39.137Z,84.9834
2022-12-11T04:34:39.057Z,84.92188
2022-12-11T04:38:07.118Z,84.91406
2022-12-11T04:40:07.141Z,84.66895
2022-12-11T04:42:07.143Z,84.49805
2022-12-11T04:44:07.130Z,84.77539
2022-12-11T04:46:07.298Z,84.61328
2022-12-11T04:48:07.070Z,84.71289
2022-12-11T04:50:07.133Z,84.86426
2022-12-11T04:52:42.802Z,84.85449
2022-12-11T04:54:42.714Z,85.31348
2022-12-11T04:56:42.770Z,85.0498
2022-12-11T04:58:42.726Z,84.87012
2022-12-11T05:00:42.793Z,85.00293
2022-12-11T05:02:43.167Z,84.73633
2022-12-11T05:04:42.706Z,84.1377
2022-12-11T05:08:00.629Z,83.88281
2022-12-11T05:10:00.435Z,84.2666
2022-12-11T05:12:00.459Z,84.24707
2022-12-11T05:14:00.426Z,84.65332
2022-12-11T05:16:00.489Z,85.0957
2022-12-11T05:18:00.379Z,85.53809
2022-12-11T05:20:00.357Z,85.86719
2022-12-11T05:23:15.154Z,86.12402
2022-12-11T05:25:15.041Z,86.38867
2022-12-11T05:27:15.071Z,85.76855
2022-12-11T05:29:15.005Z,85.58398
2022-12-11T05:31:15.297Z,85.72559
2022-12-11T05:33:15.128Z,86.0166
2022-12-11T05:35:15.010Z,85.44922
2022-12-11T05:38:25.490Z,85.25391
2022-12-11T05:40:25.364Z,85.01172
2022-12-11T05:42:29.359Z,84.99219
2022-12-11T05:44:25.325Z,84.80664
2022-12-11T05:46:25.479Z,84.5293
2022-12-11T05:48:25.458Z,84.71973
2022-12-11T05:50:25.316Z,84.27051
2022-12-11T05:53:07.594Z,84.19336
2022-12-11T05:55:07.613Z,84.5498
2022-12-11T05:57:07.582Z,84.12598
2022-12-11T05:59:07.552Z,83.7002
2022-12-11T06:01:07.634Z,83.64355
2022-12-11T06:03:07.928Z,83.3877
2022-12-11T06:05:07.923Z,82.72168
2022-12-11T06:07:07.527Z,83.41602
2022-12-11T06:08:12.991Z,83.19629
2022-12-11T06:10:12.842Z,83.25586
2022-12-11T06:12:12.818Z,84.71973
2022-12-11T06:14:12.849Z,83.65332
2022-12-11T06:16:13.002Z,82.68848
2022-12-11T06:18:12.849Z,82.61133
2022-12-11T06:20:12.937Z,83.68652
2022-12-11T06:22:12.945Z,83.33105
2022-12-11T06:23:38.241Z,82.93066
2022-12-11T06:25:38.256Z,81.89648
2022-12-11T06:27:38.328Z,81.70117
2022-12-11T06:29:38.236Z,81.12207
2022-12-11T06:31:38.341Z,81.0127
2022-12-11T06:33:38.322Z,80.85156
2022-12-11T06:35:42.644Z,80.26855
2022-12-11T06:38:32.040Z,79.96094
2022-12-11T06:40:32.135Z,80.14258
2022-12-11T06:42:32.108Z,80.07617
2022-12-11T06:44:32.060Z,79.67285
2022-12-11T06:46:32.087Z,81.16504
2022-12-11T06:48:32.053Z,80.44434
2022-12-11T06:50:32.086Z,80.18457
2022-12-11T06:52:32.090Z,79.50293
2022-12-11T06:53:43.484Z,79.56738
2022-12-11T06:55:43.544Z,79.46973
2022-12-11T06:57:43.494Z,79.49023
2022-12-11T06:59:43.548Z,79.2666
2022-12-11T07:01:43.517Z,78.75586
2022-12-11T07:03:43.567Z,78.81445
2022-12-11T07:05:43.510Z,78.76563
2022-12-11T07:07:43.567Z,79.16504
2022-12-11T07:09:37.429Z,78.34473
2022-12-11T07:11:37.426Z,78.38184
2022-12-11T07:13:37.404Z,78.03223
2022-12-11T07:15:41.660Z,77.7041
2022-12-11T07:17:37.348Z,77.5459
2022-12-11T07:19:37.471Z,77.33594
2022-12-11T07:21:37.562Z,76.80566
2022-12-11T07:24:42.374Z,76.68262
2022-12-11T07:26:42.380Z,76.72266
2022-12-11T07:28:42.320Z,76.12402
2022-12-11T07:30:42.367Z,76.03418
2022-12-11T07:32:42.544Z,75.86133
2022-12-11T07:34:47.268Z,76.2627
2022-12-11T07:36:42.470Z,76.37695
2022-12-11T07:40:06.288Z,76.87793
2022-12-11T07:42:06.418Z,76.82324
2022-12-11T07:44:06.264Z,76.87598
2022-12-11T07:46:06.454Z,76.12109
2022-12-11T07:48:06.277Z,76.7959
2022-12-11T07:50:06.301Z,77.08496
2022-12-11T07:52:06.347Z,77.14648
2022-12-11T07:54:54.041Z,77.20801
2022-12-11T07:56:54.364Z,76.86621
2022-12-11T07:58:54.023Z,76.95508
2022-12-11T08:00:54.208Z,77.04102
2022-12-11T08:02:54.188Z,77.00391
2022-12-11T08:04:54.295Z,77.45508
2022-12-11T08:06:54.201Z,77.86133
2022-12-11T08:10:15.169Z,77.30371
2022-12-11T08:12:15.013Z,78.35938
2022-12-11T08:14:15.015Z,77.57129
2022-12-11T08:16:15.148Z,78.125
2022-12-11T08:18:15.030Z,78.65332
2022-12-11T08:20:15.087Z,78.54199
2022-12-11T08:22:14.946Z,77.59961
2022-12-11T08:25:37.247Z,77.50391
2022-12-11T08:27:37.120Z,77.56152
2022-12-11T08:29:37.453Z,77.51465
2022-12-11T08:31:37.106Z,77.56934
2022-12-11T08:33:37.111Z,78.32715
2022-12-11T08:35:37.124Z,75.14941
2022-12-11T08:37:37.146Z,75.25586
2022-12-11T08:40:11.009Z,75.81152
2022-12-11T08:42:11.045Z,75.4834
2022-12-11T08:44:17.030Z,74.6416
2022-12-11T08:46:11.146Z,75.62207
2022-12-11T08:48:11.354Z,76.28809
2022-12-11T08:50:11.108Z,74.51855
2022-12-11T08:52:11.164Z,75.50488
2022-12-11T08:55:56.864Z,76.19727
2022-12-11T08:57:56.989Z,76.64551
2022-12-11T08:59:56.919Z,76.52637
2022-12-11T09:01:56.841Z,76.20996
2022-12-11T09:03:56.955Z,76.00391
2022-12-11T09:05:56.837Z,76.55176
2022-12-11T09:07:56.931Z,76.97363
2022-12-11T09:10:24.623Z,76.79199
2022-12-11T09:12:24.478Z,77.1875
2022-12-11T09:14:24.632Z,76.87695
2022-12-11T09:16:24.505Z,76.73535
2022-12-11T09:18:24.531Z,76.09766
2022-12-11T09:20:24.522Z,76.79102
2022-12-11T09:22:24.531Z,76.65723
2022-12-11T09:25:48.030Z,76.43457
2022-12-11T09:27:48.090Z,75.12793
2022-12-11T09:29:48.140Z,76.05957
2022-12-11T09:31:48.090Z,76.02734
2022-12-11T09:33:48.043Z,75.84277
2022-12-11T09:35:48.027Z,75.7168
2022-12-11T09:37:48.071Z,75.2959
2022-12-11T09:41:07.300Z,74.81641
2022-12-11T09:43:07.258Z,74.38184
2022-12-11T09:45:07.310Z,74.61035
2022-12-11T09:47:07.941Z,74.48242
2022-12-11T09:49:07.300Z,75.10449
2022-12-11T09:51:07.310Z,75.30957
2022-12-11T09:53:07.333Z,74.75293
2022-12-11T09:56:07.318Z,73.15723
2022-12-11T09:58:07.289Z,74.08984
2022-12-11T10:00:07.393Z,73.67578
2022-12-11T10:02:07.289Z,73.68945
2022-12-11T10:04:07.204Z,73.19043
2022-12-11T10:06:07.216Z,73.02441
2022-12-11T10:08:07.377Z,73.65723
2022-12-11T10:11:04.398Z,74.50293
2022-12-11T10:13:04.536Z,73.52539
2022-12-11T10:15:04.606Z,72.80762
2022-12-11T10:17:04.353Z,73.66113
2022-12-11T10:19:04.481Z,73.125
2022-12-11T10:21:04.415Z,73.50488
2022-12-11T10:23:04.418Z,73.12695
2022-12-11T10:26:21.985Z,72.53516
2022-12-11T10:28:21.997Z,73.8877
2022-12-11T10:30:21.969Z,73.30957
2022-12-11T10:32:22.093Z,73.91211
2022-12-11T10:34:22.168Z,74.06445
2022-12-11T10:36:21.957Z,74.11035
2022-12-11T10:38:21.988Z,74.00098
2022-12-11T10:42:02.063Z,73.08789
2022-12-11T10:44:02.061Z,73.88867
2022-12-11T10:46:02.128Z,74.14648
2022-12-11T10:48:02.118Z,74.54199
2022-12-11T10:50:02.114Z,74.89355
2022-12-11T10:52:02.056Z,74.79199
2022-12-11T10:54:07.656Z,74.76758
2022-12-11T10:56:51.027Z,75.2959
2022-12-11T10:58:50.899Z,74.99805
2022-12-11T11:00:51.194Z,73.95703
2022-12-11T11:02:51.057Z,74.3877
2022-12-11T11:04:51.244Z,73.8457
2022-12-11T11:06:51.167Z,73.28223
2022-12-11T11:08:50.888Z,73.49219
2022-12-11T11:12:13.636Z,73.03906
2022-12-11T11:14:13.652Z,73.67578
2022-12-11T11:16:14.061Z,72.1748
2022-12-11T11:18:13.398Z,72.96582
2022-12-11T11:20:13.493Z,72.03516
2022-12-11T11:22:13.530Z,71.4834
2022-12-11T11:24:13.502Z,71.59961
2022-12-11T11:27:12.570Z,72.85449
2022-12-11T11:28:40.888Z,71.64844
2022-12-11T11:30:40.786Z,71.73145
2022-12-11T11:32:40.637Z,71.72754
2022-12-11T11:34:40.712Z,71.71191
2022-12-11T11:36:40.735Z,71.70703
2022-12-11T11:38:40.730Z,72.25
2022-12-11T11:40:40.867Z,72.4541
2022-12-11T11:42:46.120Z,72.78613
2022-12-11T11:44:46.049Z,72.53906
2022-12-11T11:46:46.190Z,72.71973
2022-12-11T11:48:46.292Z,72.88574
2022-12-11T11:50:46.186Z,73.39063
2022-12-11T11:52:46.188Z,73.80859
2022-12-11T11:54:46.106Z,73.43359
2022-12-11T11:57:33.739Z,74.64453
2022-12-11T11:59:33.661Z,74.59473
2022-12-11T12:01:33.834Z,74.45508
2022-12-11T12:03:33.784Z,74.22754
2022-12-11T12:05:33.680Z,74.12207
2022-12-11T12:07:33.664Z,74.55176
2022-12-11T12:09:33.863Z,75.3623
2022-12-11T12:12:47.842Z,75.76367
2022-12-11T12:14:52.950Z,76.44238
2022-12-11T12:16:55.062Z,76.0332
2022-12-11T12:18:48.079Z,76.30273
2022-12-11T12:20:47.896Z,76.80273
2022-12-11T12:22:47.901Z,76.79688
2022-12-11T12:24:47.811Z,75.34277
2022-12-11T12:27:51.932Z,76.55469
2022-12-11T12:29:33.469Z,76.0752
2022-12-11T12:31:32.980Z,75.35254
2022-12-11T12:33:32.943Z,76.04395
2022-12-11T12:35:32.943Z,76.82422
2022-12-11T12:37:32.886Z,77.20215
2022-12-11T12:39:32.779Z,77.14258
2022-12-11T12:42:39.575Z,77.53516
2022-12-11T12:44:39.672Z,78.05762
2022-12-11T12:46:39.605Z,77.55078
2022-12-11T12:48:39.597Z,77.9541
2022-12-11T12:50:39.600Z,78.36816
2022-12-11T12:52:39.538Z,78.14063
2022-12-11T12:54:39.647Z,78.09277
2022-12-11T12:56:39.515Z,79.67188
2022-12-11T12:58:35.748Z,79.77051
2022-12-11T13:00:35.859Z,78.92969
2022-12-11T13:02:35.929Z,78.83496
2022-12-11T13:04:59.187Z,81.09668
2022-12-11T13:06:35.781Z,80.22461
2022-12-11T13:08:35.880Z,80.65918
2022-12-11T13:10:35.864Z,80.31836
2022-12-11T13:13:12.625Z,80.40723
2022-12-11T13:15:13.825Z,79.91699
2022-12-11T13:17:12.645Z,80.13184
2022-12-11T13:19:12.468Z,79.96777
2022-12-11T13:21:12.507Z,79.82813
2022-12-11T13:23:12.550Z,80.24707
2022-12-11T13:25:13.228Z,79.63965
2022-12-11T13:28:12.501Z,80.7832
2022-12-11T13:30:12.720Z,80.01074
2022-12-11T13:32:12.591Z,79.62207
2022-12-11T13:34:12.656Z,79.62695
2022-12-11T13:36:24.240Z,80.28613
2022-12-11T13:38:12.593Z,80.28418
2022-12-11T13:40:12.463Z,79.01953
2022-12-11T13:43:09.697Z,78.31348
2022-12-11T13:45:10.294Z,79.50586
2022-12-11T13:47:09.666Z,79.89844
2022-12-11T13:49:09.735Z,80.06055
2022-12-11T13:51:09.816Z,80.4043
2022-12-11T13:53:09.715Z,79.84668
2022-12-11T13:55:10.476Z,79.74316
2022-12-11T13:57:09.741Z,80.01563
2022-12-11T13:58:57.034Z,79.50488
2022-12-11T14:00:56.838Z,79.59375
2022-12-11T14:02:56.938Z,79.36133
2022-12-11T14:04:56.633Z,79.5459
2022-12-11T14:06:56.867Z,79.45605
2022-12-11T14:08:56.566Z,80.41016
2022-12-11T14:10:56.690Z,80.54395
2022-12-11T14:13:54.246Z,80.12305
2022-12-11T14:15:54.524Z,80.25879
2022-12-11T14:17:54.363Z,79.62988
2022-12-11T14:19:54.475Z,80.50781
2022-12-11T14:21:54.439Z,80.26758
2022-12-11T14:23:54.395Z,80.7002
2022-12-11T14:25:54.429Z,79.97168
2022-12-11T14:29:04.902Z,80.41992
2022-12-11T14:31:04.830Z,80.08008
2022-12-11T14:33:04.690Z,79.90723
2022-12-11T14:35:04.593Z,79.81836
2022-12-11T14:37:04.595Z,77.24414
2022-12-11T14:39:04.634Z,76.93848
2022-12-11T14:41:04.657Z,75.3252
2022-12-11T14:44:13.648Z,74.58203
2022-12-11T14:46:13.811Z,73.20605
2022-12-11T14:48:13.625Z,74.84375
2022-12-11T14:50:14.139Z,73.68945
2022-12-11T14:52:13.596Z,72.90723
2022-12-11T14:54:20.466Z,74.03516
2022-12-11T14:56:13.625Z,74.07813
2022-12-11T14:59:39.291Z,73.2627
2022-12-11T15:01:39.366Z,73.55957
2022-12-11T15:03:39.268Z,73.04492
2022-12-11T15:05:41.326Z,72.77441
2022-12-11T15:07:39.341Z,73.07227
2022-12-11T15:09:39.278Z,72.79883
2022-12-11T15:11:39.244Z,72.81055
2022-12-11T15:14:42.985Z,72.45703
2022-12-11T15:16:43.144Z,72.33594
2022-12-11T15:18:43.026Z,71.40723
2022-12-11T15:20:42.977Z,72.08105
2022-12-11T15:22:43.154Z,72.82324
2022-12-11T15:24:43.137Z,72.42871
2022-12-11T15:26:43.029Z,72.36426
2022-12-11T15:29:26.243Z,72.4502
2022-12-11T15:31:26.457Z,73.07227
2022-12-11T15:33:34.493Z,72.4209
2022-12-11T15:35:26.264Z,72.4541
2022-12-11T15:37:26.297Z,72.11621
2022-12-11T15:39:26.310Z,72.3125
2022-12-11T15:41:26.350Z,72.16504
2022-12-11T15:43:26.264Z,72.04395
2022-12-11T15:45:20.144Z,71.79395
2022-12-11T15:47:20.174Z,72.37402
2022-12-11T15:49:20.165Z,72.64453
2022-12-11T15:51:20.206Z,72.36426
2022-12-11T15:53:20.176Z,72.44141
2022-12-11T15:55:20.406Z,72.5498
2022-12-11T15:57:20.321Z,72.62695
2022-12-11T16:00:31.007Z,72.66699
2022-12-11T16:02:31.028Z,72.46191
2022-12-11T16:04:31.192Z,72.96387
2022-12-11T16:06:30.977Z,72.69043
2022-12-11T16:08:31.001Z,72.78125
2022-12-11T16:10:30.873Z,72.82617
2022-12-11T16:12:31.019Z,72.22363
2022-12-11T16:15:24.417Z,73.29199
2022-12-11T16:17:16.468Z,73.13086
2022-12-11T16:19:16.490Z,73.06348
2022-12-11T16:21:21.784Z,73.12695
2022-12-11T16:23:16.789Z,72.55859
2022-12-11T16:25:16.487Z,72.69629
2022-12-11T16:27:23.506Z,72.38477
2022-12-11T16:30:06.697Z,73.13867
2022-12-11T16:32:00.850Z,72.13086
2022-12-11T16:34:02.180Z,73.04688
2022-12-11T16:36:00.793Z,73.35742
2022-12-11T16:38:00.882Z,73.31934
2022-12-11T16:40:00.837Z,73.13867
2022-12-11T16:42:00.849Z,72.81738
2022-12-11T16:44:00.858Z,72.73242
2022-12-11T16:45:41.689Z,73.14355
2022-12-11T16:47:47.672Z,73.07715
2022-12-11T16:49:47.454Z,72.70117
2022-12-11T16:51:41.480Z,72.88672
2022-12-11T16:53:41.587Z,72.60352
2022-12-11T16:55:41.429Z,72.77734
2022-12-11T16:57:41.581Z,72.51855
2022-12-11T17:01:16.910Z,73.28711
2022-12-11T17:03:17.146Z,73.01563
2022-12-11T17:05:16.576Z,73.08398
2022-12-11T17:07:16.704Z,72.02051
2022-12-11T17:09:16.479Z,72.43848
2022-12-11T17:11:16.593Z,72.67871
2022-12-11T17:13:16.526Z,72.70703
2022-12-11T17:15:47.896Z,72.86914
2022-12-11T17:17:47.847Z,72.75781
2022-12-11T17:19:47.978Z,72.50293
2022-12-11T17:21:52.007Z,72.35254
2022-12-11T17:23:47.866Z,72.35059
2022-12-11T17:25:47.777Z,72.21875
2022-12-11T17:27:47.802Z,72.41016
2022-12-11T17:31:03.879Z,72.48047
2022-12-11T17:33:03.569Z,72.55371
2022-12-11T17:35:03.620Z,72.67871
2022-12-11T17:37:03.674Z,72.08984
2022-12-11T17:39:03.787Z,72.59766
2022-12-11T17:41:03.599Z,72.33594
2022-12-11T17:43:03.573Z,72.24219
2022-12-11T17:46:33.187Z,71.85156
2022-12-11T17:48:33.108Z,72.34863
2022-12-11T17:50:33.056Z,72.59863
2022-12-11T17:52:39.616Z,71.72168
2022-12-11T17:54:33.283Z,72.12891
2022-12-11T17:56:33.078Z,72.2832
2022-12-11T17:58:33.185Z,72.23438
2022-12-11T18:01:18.162Z,72.10742
2022-12-11T18:03:18.230Z,72.2832
2022-12-11T18:05:18.179Z,72.15137
2022-12-11T18:07:18.090Z,71.8623
2022-12-11T18:09:18.062Z,71.75781
2022-12-11T18:11:17.974Z,72.41895
2022-12-11T18:13:18.014Z,72.4541
2022-12-11T18:17:08.230Z,71.91602
2022-12-11T18:19:05.284Z,72.54102
2022-12-11T18:21:05.267Z,72.79492
2022-12-11T18:23:05.378Z,72.51563
2022-12-11T18:25:12.235Z,72.35449
2022-12-11T18:27:05.316Z,72.16113
2022-12-11T18:29:05.331Z,72.76758
2022-12-11T18:31:54.337Z,72.66016
2022-12-11T18:33:54.105Z,72.59082
2022-12-11T18:35:54.338Z,72.81445
2022-12-11T18:37:54.069Z,72.66016
2022-12-11T18:39:54.109Z,72.4502
2022-12-11T18:42:31.499Z,72.11523
2022-12-11T18:43:55.253Z,72.3623
2022-12-11T18:46:44.807Z,72.47461
2022-12-11T18:48:44.730Z,72.25781
2022-12-11T18:50:44.647Z,72.66895
2022-12-11T18:52:45.147Z,72.1543
2022-12-11T18:54:44.878Z,72.02344
2022-12-11T18:56:44.674Z,71.9082
2022-12-11T18:58:45.025Z,72.08203
2022-12-11T19:02:17.178Z,71.33887
2022-12-11T19:04:16.965Z,71.43457
2022-12-11T19:06:16.984Z,71.56445
2022-12-11T19:08:17.169Z,72.41797
2022-12-11T19:10:16.990Z,72.83105
2022-12-11T19:12:17.531Z,73.05176
2022-12-11T19:14:16.996Z,73.62793
2022-12-11T19:16:52.119Z,72.57715
2022-12-11T19:18:52.185Z,73.17578
2022-12-11T19:21:08.970Z,73.15527
2022-12-11T19:22:52.224Z,73.10059
2022-12-11T19:24:52.227Z,72.50391
2022-12-11T19:26:51.967Z,72.33594
2022-12-11T19:28:52.006Z,72.75488
2022-12-11T19:30:52.002Z,72.69336
2022-12-11T19:32:05.140Z,72.66602
2022-12-11T19:34:05.154Z,72.62109
2022-12-11T19:36:05.279Z,72.50488
2022-12-11T19:38:05.418Z,72.34082
2022-12-11T19:40:05.165Z,72.19824
2022-12-11T19:42:05.282Z,72.41406
2022-12-11T19:44:05.094Z,72.30176
2022-12-11T19:46:05.266Z,72.78125
2022-12-11T19:47:27.242Z,72.95313
2022-12-11T19:49:33.262Z,73.21875
2022-12-11T19:51:27.033Z,73.08594
2022-12-11T19:53:26.957Z,72.96875
2022-12-11T19:55:27.314Z,73.09863
2022-12-11T19:57:27.012Z,73.40332
2022-12-11T19:59:27.478Z,73.30078
2022-12-11T20:02:38.273Z,72.91797
2022-12-11T20:04:38.207Z,72.6709
2022-12-11T20:06:38.230Z,72.96973
2022-12-11T20:08:46.565Z,73.15527
2022-12-11T20:10:38.217Z,73.17188
2022-12-11T20:12:38.192Z,73.25781
2022-12-11T20:14:38.174Z,72.69727
2022-12-11T20:17:46.812Z,72.57422
2022-12-11T20:19:46.780Z,72.97461
2022-12-11T20:21:46.764Z,73.40625
2022-12-11T20:23:46.740Z,73.77637
2022-12-11T20:25:46.728Z,74.05371
2022-12-11T20:27:46.770Z,74.02539
2022-12-11T20:29:46.734Z,74.19043
2022-12-11T20:32:58.479Z,73.49609
2022-12-11T20:34:58.336Z,73.74512
2022-12-11T20:36:58.401Z,73.57129
2022-12-11T20:38:58.350Z,73.42871
2022-12-11T20:40:58.336Z,73.48145
2022-12-11T20:42:58.333Z,73.34375
2022-12-11T20:44:58.339Z,73.23926
2022-12-11T20:48:06.028Z,73.68945
2022-12-11T20:50:05.992Z,73.8916
2022-12-11T20:52:06.041Z,73.72363
2022-12-11T20:54:06.005Z,73.50977
2022-12-11T20:56:05.979Z,73.49219
2022-12-11T20:58:05.991Z,74.86426
2022-12-11T21:00:05.949Z,74.74316
2022-12-11T21:03:42.200Z,74.89355
2022-12-11T21:05:34.054Z,74.2041
2022-12-11T21:07:33.991Z,73.75
2022-12-11T21:09:34.032Z,73.13477
2022-12-11T21:11:33.947Z,73.78418
2022-12-11T21:13:34.019Z,73.89844
2022-12-11T21:15:33.974Z,73.94336
2022-12-11T21:18:41.911Z,73.89453
2022-12-11T21:20:41.858Z,74.11719
2022-12-11T21:22:41.916Z,74.12207
2022-12-11T21:24:41.905Z,73.29102
2022-12-11T21:26:41.919Z,73.6543
2022-12-11T21:28:41.859Z,73.31445
2022-12-11T21:30:41.896Z,73.74316
2022-12-11T21:33:36.760Z,74.45117
2022-12-11T21:35:36.741Z,74.19531
2022-12-11T21:37:36.700Z,73.96973
2022-12-11T21:39:39.717Z,73.69824
2022-12-11T21:41:36.710Z,74.33496
2022-12-11T21:44:14.497Z,74.46582
2022-12-11T21:46:02.542Z,74.6748
2022-12-11T21:49:14.270Z,74.74805
2022-12-11T21:51:14.313Z,74.6582
2022-12-11T21:53:14.316Z,74.28516
2022-12-11T21:55:20.237Z,74.22949
2022-12-11T21:57:26.465Z,74.48047
2022-12-11T21:59:14.420Z,73.78223
2022-12-11T22:01:14.343Z,74.42969
2022-12-11T22:04:10.674Z,74.27637
2022-12-11T22:06:10.607Z,74.41602
2022-12-11T22:08:10.667Z,73.64453
2022-12-11T22:10:10.540Z,74.26758
2022-12-11T22:12:10.566Z,74.60352
2022-12-11T22:14:10.651Z,74.61426
2022-12-11T22:16:16.665Z,74.80566
2022-12-11T22:19:32.637Z,75.14551
2022-12-11T22:21:24.649Z,74.7832
2022-12-11T22:23:24.676Z,75.18652
2022-12-11T22:25:24.697Z,74.72949
2022-12-11T22:27:24.679Z,75.90332
2022-12-11T22:29:24.686Z,76.13184
2022-12-11T22:31:24.714Z,75.20898
2022-12-11T22:34:22.564Z,75.2793
2022-12-11T22:36:22.630Z,74.64453
2022-12-11T22:38:22.556Z,74.99609
2022-12-11T22:40:22.776Z,75.51758
2022-12-11T22:42:22.561Z,76.0918
2022-12-11T22:44:22.606Z,75.18652
2022-12-11T22:46:22.812Z,76.00781
2022-12-11T22:50:07.839Z,76.10742
2022-12-11T22:52:07.808Z,76.05664
2022-12-11T22:54:13.089Z,76.18652
2022-12-11T22:56:07.850Z,76.13184
2022-12-11T22:58:08.087Z,75.54004
2022-12-11T23:00:07.904Z,75.71973
2022-12-11T23:02:07.988Z,75.5459
2022-12-11T23:05:21.269Z,74.56836
2022-12-11T23:07:21.003Z,74.4541
2022-12-11T23:09:21.261Z,75.64844
2022-12-11T23:11:21.158Z,75.57715
2022-12-11T23:13:21.117Z,74.49902
2022-12-11T23:15:20.856Z,75.00488
2022-12-11T23:17:20.865Z,75.34277
2022-12-11T23:20:06.572Z,75.38379
2022-12-11T23:22:06.597Z,74.92676
2022-12-11T23:24:06.650Z,74.68652
2022-12-11T23:26:06.613Z,74.59863
2022-12-11T23:28:06.618Z,74.20313
2022-12-11T23:30:12.588Z,73.84277
2022-12-11T23:32:06.583Z,74.0791
2022-12-11T23:35:33.506Z,73.83984
2022-12-11T23:37:33.532Z,73.7041
2022-12-11T23:39:33.521Z,73.32813
2022-12-11T23:41:33.565Z,73.40332
2022-12-11T23:43:33.577Z,73.56152
2022-12-11T23:45:33.556Z,73.51172
2022-12-11T23:47:33.580Z,73.22363
2022-12-11T23:50:33.187Z,73.27734
2022-12-11T23:52:27.966Z,73.18652
2022-12-11T23:54:27.754Z,73.42871
2022-12-11T23:56:27.934Z,73.28125
2022-12-11T23:58:27.775Z,73.34668
